Aviation Digital Data Service (ADDS)

Output produced by METARs form (0640 UTC 24 March 2019)
found at http://www.aviationweather.gov/metar/data/
 
LATI 240620Z 14003KT 110V170 CAVOK 10/05 Q1020 NOSIG
TAF LATI 240500Z 2406/2506 VRB03KT CAVOK 
     TEMPO 2411/2417 33012KT